createdAt,value
2018-05-21T00:01:53.785Z,16.99
2018-05-21T00:04:24.815Z,16.90
2018-05-21T00:06:55.797Z,16.85
2018-05-21T00:09:26.869Z,16.82
2018-05-21T00:11:57.872Z,16.81
2018-05-21T00:14:28.874Z,16.77
2018-05-21T00:16:59.886Z,16.79
2018-05-21T00:19:30.903Z,16.76
2018-05-21T00:22:01.937Z,16.75
2018-05-21T00:24:32.985Z,16.71
2018-05-21T00:27:03.971Z,16.71
2018-05-21T00:29:34.981Z,16.69
2018-05-21T00:32:05.979Z,16.71
2018-05-21T00:34:36.986Z,16.68
2018-05-21T00:37:08.059Z,16.69
2018-05-21T00:39:39.092Z,16.65
2018-05-21T00:42:10.116Z,16.65
2018-05-21T00:44:41.197Z,16.69
2018-05-21T00:47:12.175Z,16.68
2018-05-21T00:49:43.222Z,16.68
2018-05-21T00:52:14.242Z,16.67
2018-05-21T00:54:57.633Z,16.65
2018-05-21T00:57:28.664Z,16.60
2018-05-21T00:59:59.729Z,16.49
2018-05-21T01:02:30.732Z,16.48
2018-05-21T01:05:01.737Z,16.46
2018-05-21T01:07:32.784Z,16.50
2018-05-21T01:10:03.888Z,16.49
2018-05-21T01:12:34.863Z,16.45
2018-05-21T01:15:05.924Z,16.50
2018-05-21T01:17:36.937Z,16.52
2018-05-21T01:20:08.028Z,16.50
2018-05-21T01:22:39.030Z,16.47
2018-05-21T01:25:10.078Z,16.50
2018-05-21T01:27:41.099Z,16.50
2018-05-21T01:30:12.139Z,16.48
2018-05-21T01:32:43.129Z,16.49
2018-05-21T01:35:14.187Z,16.44
2018-05-21T01:37:45.189Z,16.41
2018-05-21T01:40:16.210Z,16.42
2018-05-21T01:42:47.222Z,16.40
2018-05-21T01:45:18.261Z,16.32
2018-05-21T01:47:49.228Z,16.29
2018-05-21T01:50:20.275Z,16.31
2018-05-21T01:52:51.246Z,16.25
2018-05-21T01:55:22.285Z,16.19
2018-05-21T01:57:53.244Z,16.18
2018-05-21T02:00:24.259Z,16.20
2018-05-21T02:02:55.232Z,16.21
2018-05-21T02:05:26.295Z,16.16
2018-05-21T02:07:57.309Z,16.12
2018-05-21T02:10:28.410Z,16.05
2018-05-21T02:12:59.418Z,15.98
2018-05-21T02:15:30.766Z,15.99
2018-05-21T02:18:01.788Z,16.01
2018-05-21T02:20:32.816Z,15.98
2018-05-21T02:23:03.851Z,15.97
2018-05-21T02:25:34.886Z,15.93
2018-05-21T02:28:05.842Z,15.90
2018-05-21T02:30:36.856Z,15.91
2018-05-21T02:33:07.840Z,15.89
2018-05-21T02:35:39.041Z,15.86
2018-05-21T02:38:10.046Z,15.79
2018-05-21T02:40:41.108Z,15.76
2018-05-21T02:43:12.114Z,15.73
2018-05-21T02:45:43.153Z,15.68
2018-05-21T02:48:14.162Z,15.66
2018-05-21T02:50:45.196Z,15.67
2018-05-21T02:53:16.173Z,15.67
2018-05-21T02:55:47.171Z,15.64
2018-05-21T02:58:18.229Z,15.56
2018-05-21T03:00:49.251Z,15.55
2018-05-21T03:03:20.249Z,15.55
2018-05-21T03:05:51.263Z,15.55
2018-05-21T03:08:22.324Z,15.54
2018-05-21T03:10:53.409Z,15.56
2018-05-21T03:13:24.412Z,15.52
2018-05-21T03:15:55.458Z,15.52
2018-05-21T03:18:26.431Z,15.48
2018-05-21T03:20:57.461Z,15.44
2018-05-21T03:23:28.466Z,15.46
2018-05-21T03:25:59.499Z,15.46
2018-05-21T03:28:30.502Z,15.53
2018-05-21T03:31:01.567Z,15.53
2018-05-21T03:33:32.553Z,15.51
2018-05-21T03:36:03.604Z,15.51
2018-05-21T03:38:34.617Z,15.60
2018-05-21T03:41:05.592Z,15.60
2018-05-21T03:43:36.630Z,15.66
2018-05-21T03:46:07.636Z,15.74
2018-05-21T03:48:38.686Z,15.76
2018-05-21T03:51:09.658Z,15.81
2018-05-21T03:53:40.723Z,15.85
2018-05-21T03:56:11.960Z,15.85
2018-05-21T03:58:55.353Z,15.88
2018-05-21T04:01:29.058Z,15.91
2018-05-21T04:04:00.251Z,15.99
2018-05-21T04:06:32.132Z,16.07
2018-05-21T04:09:03.163Z,16.13
2018-05-21T04:11:34.770Z,16.15
2018-05-21T04:14:05.783Z,16.17
2018-05-21T04:16:36.796Z,16.16
2018-05-21T04:19:07.823Z,16.16
2018-05-21T04:21:38.834Z,16.10
2018-05-21T04:24:09.842Z,16.20
2018-05-21T04:26:40.877Z,16.20
2018-05-21T04:29:11.912Z,16.26
2018-05-21T04:31:42.920Z,16.38
2018-05-21T04:34:13.900Z,16.51
2018-05-21T04:36:45.016Z,16.62
2018-05-21T04:39:16.049Z,16.62
2018-05-21T04:41:47.021Z,16.73
2018-05-21T04:44:18.054Z,16.73
2018-05-21T04:46:49.026Z,16.81
2018-05-21T04:49:19.980Z,16.86
2018-05-21T04:51:51.007Z,16.87
2018-05-21T04:54:22.012Z,16.86
2018-05-21T04:56:53.030Z,16.86
2018-05-21T04:59:24.035Z,16.93
2018-05-21T05:01:55.093Z,17.04
2018-05-21T05:04:26.093Z,17.20
2018-05-21T05:06:57.282Z,17.32
2018-05-21T05:09:28.256Z,17.33
2018-05-21T05:11:59.305Z,17.49
2018-05-21T05:14:30.278Z,17.54
2018-05-21T05:17:01.315Z,17.65
2018-05-21T05:19:32.269Z,17.75
2018-05-21T05:22:03.309Z,17.93
2018-05-21T05:24:34.289Z,18.14
2018-05-21T05:27:05.326Z,18.25
2018-05-21T05:29:36.338Z,18.28
2018-05-21T05:32:07.390Z,18.36
2018-05-21T05:34:38.383Z,18.49
2018-05-21T05:37:09.434Z,18.38
2018-05-21T05:39:40.472Z,18.51
2018-05-21T05:42:11.610Z,18.56
2018-05-21T05:44:42.514Z,18.81
2018-05-21T05:47:13.518Z,18.87
2018-05-21T05:49:44.479Z,19.03
2018-05-21T05:52:15.495Z,19.30
2018-05-21T05:54:46.480Z,21.53
2018-05-21T05:57:17.555Z,27.11
2018-05-21T05:59:48.600Z,32.30
2018-05-21T06:02:19.636Z,36.02
2018-05-21T06:04:50.637Z,37.59
2018-05-21T06:07:21.680Z,38.84
2018-05-21T06:09:52.689Z,39.69
2018-05-21T06:12:23.686Z,41.13
2018-05-21T06:14:54.762Z,42.45
2018-05-21T06:17:25.748Z,43.61
2018-05-21T06:19:56.759Z,43.66
2018-05-21T06:22:27.764Z,44.27
2018-05-21T06:24:58.781Z,45.12
2018-05-21T06:27:29.772Z,45.46
2018-05-21T06:30:00.834Z,45.02
2018-05-21T06:32:31.871Z,44.56
2018-05-21T06:35:02.908Z,44.07
2018-05-21T06:37:34.024Z,43.91
2018-05-21T06:40:05.039Z,45.43
2018-05-21T06:42:36.141Z,46.53
2018-05-21T06:45:07.160Z,47.04
2018-05-21T06:47:45.288Z,47.62
2018-05-21T06:50:16.213Z,47.85
2018-05-21T06:52:47.247Z,48.65
2018-05-21T06:55:18.290Z,48.50
2018-05-21T06:57:49.343Z,49.07
2018-05-21T07:00:20.368Z,50.60
2018-05-21T07:02:51.403Z,50.86
2018-05-21T07:05:22.406Z,51.82
2018-05-21T07:07:53.522Z,53.12
2018-05-21T07:10:24.527Z,53.38
2018-05-21T07:12:55.539Z,54.17
2018-05-21T07:15:26.574Z,54.78
2018-05-21T07:17:57.602Z,53.51
2018-05-21T07:20:28.667Z,53.75
2018-05-21T07:22:59.750Z,53.61
2018-05-21T07:25:30.726Z,54.30
2018-05-21T07:28:01.805Z,55.22
2018-05-21T07:30:32.842Z,55.03
2018-05-21T07:33:03.884Z,53.79
2018-05-21T07:35:35.909Z,54.84
2018-05-21T07:38:07.451Z,54.93
2018-05-21T07:40:38.701Z,53.88
2018-05-21T07:43:09.952Z,53.90
2018-05-21T07:45:41.128Z,55.12
2018-05-21T07:48:12.348Z,56.25
2018-05-21T07:50:43.673Z,55.12
2018-05-21T07:53:15.007Z,54.13
2018-05-21T07:55:46.165Z,54.53
2018-05-21T07:58:17.269Z,53.44
2018-05-21T08:00:48.720Z,53.92
2018-05-21T08:03:19.747Z,54.98
2018-05-21T08:05:50.782Z,55.09
2018-05-21T08:08:21.850Z,53.90
2018-05-21T08:10:52.893Z,53.82
2018-05-21T08:16:19.958Z,56.10
2018-05-21T08:18:50.989Z,54.94
2018-05-21T08:21:22.050Z,55.96
2018-05-21T08:23:53.061Z,56.20
2018-05-21T08:26:24.119Z,56.39
2018-05-21T08:28:55.128Z,55.42
2018-05-21T08:31:26.200Z,54.40
2018-05-21T08:33:57.240Z,54.23
2018-05-21T08:36:28.274Z,55.89
2018-05-21T08:38:59.307Z,55.12
2018-05-21T08:41:30.370Z,55.25
2018-05-21T08:44:01.376Z,56.12
2018-05-21T08:46:32.443Z,56.62
2018-05-21T08:49:03.496Z,55.07
2018-05-21T08:51:34.534Z,54.73
2018-05-21T08:54:05.511Z,53.61
2018-05-21T08:56:36.648Z,53.41
2018-05-21T08:59:07.611Z,52.83
2018-05-21T09:01:38.652Z,52.70
2018-05-21T09:04:09.714Z,52.84
2018-05-21T09:06:40.712Z,53.48
2018-05-21T09:09:11.783Z,54.90
2018-05-21T09:11:42.802Z,55.12
2018-05-21T09:14:13.801Z,54.14
2018-05-21T09:16:44.899Z,53.59
2018-05-21T09:19:16.040Z,53.90
2018-05-21T09:21:47.124Z,54.20
2018-05-21T09:24:18.343Z,54.25
2018-05-21T09:26:49.390Z,52.86
2018-05-21T09:29:20.455Z,53.01
2018-05-21T09:31:51.499Z,52.54
2018-05-21T09:34:22.468Z,52.21
2018-05-21T09:36:53.535Z,50.77
2018-05-21T09:39:24.548Z,50.86
2018-05-21T09:41:55.611Z,51.80
2018-05-21T09:44:26.563Z,52.94
2018-05-21T09:46:57.605Z,52.67
2018-05-21T09:49:28.592Z,52.62
2018-05-21T09:51:59.637Z,51.53
2018-05-21T09:54:30.637Z,50.61
2018-05-21T09:57:01.660Z,50.01
2018-05-21T09:59:32.660Z,50.12
2018-05-21T10:02:03.687Z,50.40
2018-05-21T10:04:34.700Z,49.47
2018-05-21T10:07:05.745Z,49.38
2018-05-21T10:09:36.882Z,49.01
2018-05-21T10:12:07.931Z,49.89
2018-05-21T10:14:39.004Z,50.12
2018-05-21T10:17:10.033Z,50.08
2018-05-21T10:19:41.133Z,49.69
2018-05-21T10:22:12.198Z,48.74
2018-05-21T10:24:43.270Z,47.59
2018-05-21T10:27:21.420Z,46.32
2018-05-21T10:29:52.486Z,46.45
2018-05-21T10:32:23.536Z,46.67
2018-05-21T10:34:54.556Z,46.14
2018-05-21T10:37:25.681Z,46.26
2018-05-21T10:39:56.686Z,45.74
2018-05-21T10:42:27.703Z,45.83
2018-05-21T10:44:58.700Z,46.16
2018-05-21T10:47:29.747Z,46.86
2018-05-21T10:50:00.780Z,47.44
2018-05-21T10:52:31.842Z,46.20
2018-05-21T10:55:02.900Z,43.90
2018-05-21T10:57:33.967Z,41.15
2018-05-21T11:00:05.001Z,38.02
2018-05-21T11:02:36.012Z,35.68
2018-05-21T11:05:07.010Z,34.11
2018-05-21T11:07:38.100Z,33.06
2018-05-21T11:10:09.150Z,32.11
2018-05-21T11:12:40.176Z,31.52
2018-05-21T11:15:11.261Z,31.03
2018-05-21T11:17:42.282Z,30.97
2018-05-21T11:20:13.306Z,30.85
2018-05-21T11:22:44.383Z,30.67
2018-05-21T11:25:15.394Z,30.60
2018-05-21T11:27:46.462Z,30.68
2018-05-21T11:30:17.468Z,30.72
2018-05-21T11:32:48.508Z,30.71
2018-05-21T11:35:19.554Z,30.80
2018-05-21T11:37:50.600Z,30.62
2018-05-21T11:40:21.646Z,30.34
2018-05-21T11:42:52.739Z,29.99
2018-05-21T11:45:23.750Z,29.71
2018-05-21T11:47:57.744Z,29.98
2018-05-21T11:50:28.726Z,30.04
2018-05-21T11:52:59.750Z,30.20
2018-05-21T11:55:30.713Z,30.40
2018-05-21T11:58:01.811Z,30.55
2018-05-21T12:00:32.799Z,30.73
2018-05-21T12:03:03.834Z,31.21
2018-05-21T12:05:34.859Z,31.45
2018-05-21T12:08:05.862Z,31.54
2018-05-21T12:10:36.893Z,31.39
2018-05-21T12:13:07.929Z,31.16
2018-05-21T12:15:38.980Z,31.13
2018-05-21T12:18:10.001Z,31.44
2018-05-21T12:20:41.064Z,31.22
2018-05-21T12:23:12.116Z,31.13
2018-05-21T12:25:43.150Z,31.52
2018-05-21T12:28:14.140Z,32.07
2018-05-21T12:30:45.186Z,32.15
2018-05-21T12:33:16.273Z,31.51
2018-05-21T12:35:47.267Z,31.16
2018-05-21T12:38:18.281Z,30.33
2018-05-21T12:40:49.336Z,29.74
2018-05-21T12:43:20.379Z,29.91
2018-05-21T12:45:58.328Z,29.64
2018-05-21T12:48:29.405Z,29.56
2018-05-21T12:51:00.464Z,30.14
2018-05-21T12:53:31.519Z,30.50
2018-05-21T12:56:02.576Z,30.96
2018-05-21T12:58:33.660Z,31.23
2018-05-21T13:01:04.682Z,31.23
2018-05-21T13:03:35.673Z,31.29
2018-05-21T13:06:06.740Z,31.47
2018-05-21T13:08:37.799Z,31.82
2018-05-21T13:11:08.877Z,31.71
2018-05-21T13:13:39.922Z,31.59
2018-05-21T13:16:10.953Z,31.61
2018-05-21T13:18:42.071Z,31.63
2018-05-21T13:21:13.145Z,31.84
2018-05-21T13:23:44.212Z,31.64
2018-05-21T13:26:15.220Z,31.60
2018-05-21T13:28:46.227Z,31.40
2018-05-21T13:31:17.225Z,31.78
2018-05-21T13:33:48.272Z,31.62
2018-05-21T13:36:19.282Z,31.45
2018-05-21T13:38:50.280Z,31.41
2018-05-21T13:41:21.279Z,32.12
2018-05-21T13:43:52.336Z,32.36
2018-05-21T13:46:23.435Z,32.40
2018-05-21T13:48:54.474Z,32.48
2018-05-21T13:51:25.507Z,32.82
2018-05-21T13:53:56.611Z,33.13
2018-05-21T13:56:27.625Z,32.97
2018-05-21T13:58:58.708Z,32.99
2018-05-21T14:01:29.664Z,32.64
2018-05-21T14:04:00.744Z,32.59
2018-05-21T14:06:31.767Z,32.40
2018-05-21T14:09:02.902Z,32.47
2018-05-21T14:11:33.935Z,32.61
2018-05-21T14:14:04.998Z,32.52
2018-05-21T14:16:35.998Z,32.11
2018-05-21T14:19:07.050Z,32.16
2018-05-21T14:21:38.061Z,31.55
2018-05-21T14:24:09.084Z,31.07
2018-05-21T14:26:40.066Z,31.36
2018-05-21T14:29:11.090Z,30.89
2018-05-21T14:31:42.165Z,30.36
2018-05-21T14:34:13.258Z,29.98
2018-05-21T14:36:44.334Z,30.77
2018-05-21T14:39:15.451Z,31.77
2018-05-21T14:41:46.596Z,32.53
2018-05-21T14:44:17.615Z,33.05
2018-05-21T14:46:48.658Z,33.32
2018-05-21T14:49:19.691Z,33.36
2018-05-21T14:51:50.714Z,33.10
2018-05-21T14:54:21.758Z,33.16
2018-05-21T14:56:52.793Z,33.28
2018-05-21T14:59:23.779Z,33.36
2018-05-21T15:01:54.800Z,33.36
2018-05-21T15:04:25.814Z,33.22
2018-05-21T15:06:56.819Z,32.76
2018-05-21T15:09:27.855Z,32.28
2018-05-21T15:11:58.928Z,32.31
2018-05-21T15:14:29.953Z,32.47
2018-05-21T15:17:00.939Z,32.47
2018-05-21T15:19:32.007Z,32.55
2018-05-21T15:22:03.039Z,32.74
2018-05-21T15:24:34.024Z,32.71
2018-05-21T15:27:12.060Z,32.72
2018-05-21T15:29:43.105Z,32.63
2018-05-21T15:32:14.173Z,32.31
2018-05-21T15:34:45.225Z,31.94
2018-05-21T15:37:16.293Z,31.64
2018-05-21T15:39:47.336Z,31.68
2018-05-21T15:42:18.430Z,31.64
2018-05-21T15:44:49.470Z,31.60
2018-05-21T15:47:20.552Z,31.40
2018-05-21T15:49:51.536Z,31.24
2018-05-21T15:52:22.608Z,31.08
2018-05-21T15:54:53.677Z,31.13
2018-05-21T15:57:24.716Z,31.29
2018-05-21T15:59:55.838Z,31.36
2018-05-21T16:02:26.864Z,31.28
2018-05-21T16:04:57.876Z,31.22
2018-05-21T16:07:28.892Z,31.34
2018-05-21T16:09:59.907Z,31.29
2018-05-21T16:12:30.990Z,31.26
2018-05-21T16:15:02.004Z,31.02
2018-05-21T16:17:32.986Z,30.75
2018-05-21T16:20:04.040Z,30.58
2018-05-21T16:22:35.036Z,30.29
2018-05-21T16:25:06.068Z,30.07
2018-05-21T16:27:37.084Z,29.88
2018-05-21T16:30:08.204Z,29.82
2018-05-21T16:32:39.149Z,29.60
2018-05-21T16:35:10.123Z,29.39
2018-05-21T16:37:41.141Z,29.29
2018-05-21T16:40:12.156Z,29.47
2018-05-21T16:42:43.151Z,29.71
2018-05-21T16:45:14.229Z,29.62
2018-05-21T16:47:45.407Z,29.77
2018-05-21T16:50:16.423Z,29.70
2018-05-21T16:52:47.430Z,29.18
2018-05-21T16:55:18.473Z,28.89
2018-05-21T16:57:49.519Z,28.80
2018-05-21T17:00:20.524Z,28.45
2018-05-21T17:02:51.527Z,28.38
2018-05-21T17:05:22.513Z,28.07
2018-05-21T17:07:53.581Z,28.01
2018-05-21T17:10:24.553Z,28.09
2018-05-21T17:15:37.635Z,27.76
2018-05-21T17:18:08.618Z,27.65
2018-05-21T17:20:39.675Z,27.25
2018-05-21T17:23:10.668Z,26.78
2018-05-21T17:25:41.682Z,26.56
2018-05-21T17:28:12.712Z,26.36
2018-05-21T17:30:43.769Z,26.24
2018-05-21T17:33:14.750Z,26.11
2018-05-21T17:35:45.768Z,26.03
2018-05-21T17:38:16.756Z,25.90
2018-05-21T17:40:47.778Z,25.91
2018-05-21T17:43:18.785Z,25.72
2018-05-21T17:45:49.826Z,25.56
2018-05-21T17:48:20.830Z,25.51
2018-05-21T17:50:51.800Z,25.39
2018-05-21T17:53:22.819Z,25.25
2018-05-21T17:55:55.827Z,25.12
2018-05-21T17:58:26.860Z,25.08
2018-05-21T18:00:57.931Z,25.06
2018-05-21T18:03:29.058Z,24.86
2018-05-21T18:06:00.097Z,24.82
2018-05-21T18:08:31.119Z,24.73
2018-05-21T18:11:02.237Z,24.62
2018-05-21T18:13:33.265Z,24.49
2018-05-21T18:16:04.289Z,24.30
2018-05-21T18:18:35.264Z,24.26
2018-05-21T18:21:06.269Z,24.11
2018-05-21T18:23:37.313Z,24.03
2018-05-21T18:26:08.383Z,23.92
2018-05-21T18:28:39.376Z,23.84
2018-05-21T18:31:10.398Z,23.79
2018-05-21T18:33:41.384Z,23.67
2018-05-21T18:36:12.454Z,23.56
2018-05-21T18:38:43.485Z,23.52
2018-05-21T18:41:14.532Z,23.46
2018-05-21T18:43:45.568Z,23.35
2018-05-21T18:46:16.581Z,23.35
2018-05-21T18:48:47.596Z,23.32
2018-05-21T18:51:18.661Z,23.26
2018-05-21T18:53:49.779Z,23.14
2018-05-21T18:56:20.776Z,23.02
2018-05-21T18:58:51.808Z,22.93
2018-05-21T19:01:22.820Z,22.84
2018-05-21T19:03:53.834Z,22.67
2018-05-21T19:06:24.827Z,22.59
2018-05-21T19:08:55.890Z,22.49
2018-05-21T19:11:26.993Z,22.40
2018-05-21T19:13:58.051Z,22.37
2018-05-21T19:16:29.143Z,22.34
2018-05-21T19:19:00.158Z,22.29
2018-05-21T19:21:31.218Z,22.17
2018-05-21T19:24:02.209Z,22.11
2018-05-21T19:26:33.215Z,22.06
2018-05-21T19:29:04.277Z,22.03
2018-05-21T19:31:35.295Z,21.97
2018-05-21T19:34:06.310Z,21.90
2018-05-21T19:36:44.180Z,21.87
2018-05-21T19:39:15.243Z,21.82
2018-05-21T19:41:46.239Z,21.81
2018-05-21T19:44:17.246Z,21.79
2018-05-21T19:46:48.299Z,21.76
2018-05-21T19:49:19.322Z,21.72
2018-05-21T19:51:50.380Z,21.67
2018-05-21T19:54:21.375Z,21.61
2018-05-21T19:56:52.412Z,21.59
2018-05-21T19:59:23.471Z,21.57
2018-05-21T20:01:54.491Z,21.46
2018-05-21T20:04:25.540Z,21.48
2018-05-21T20:06:56.554Z,21.47
2018-05-21T20:09:27.591Z,21.43
2018-05-21T20:11:58.578Z,21.37
2018-05-21T20:14:29.626Z,21.33
2018-05-21T20:17:00.670Z,21.25
2018-05-21T20:19:31.626Z,21.16
2018-05-21T20:22:02.679Z,21.10
2018-05-21T20:24:33.667Z,21.11
2018-05-21T20:27:04.715Z,21.08
2018-05-21T20:29:35.756Z,21.01
2018-05-21T20:32:06.741Z,20.98
2018-05-21T20:34:37.794Z,21.00
2018-05-21T20:37:08.911Z,20.95
2018-05-21T20:39:39.891Z,20.89
2018-05-21T20:42:10.920Z,20.84
2018-05-21T20:44:41.939Z,20.78
2018-05-21T20:47:12.995Z,20.72
2018-05-21T20:49:44.094Z,20.72
2018-05-21T20:52:15.086Z,20.68
2018-05-21T20:54:46.074Z,20.58
2018-05-21T20:57:17.188Z,20.57
2018-05-21T20:59:48.180Z,20.51
2018-05-21T21:02:19.214Z,20.47
2018-05-21T21:04:50.217Z,20.47
2018-05-21T21:07:21.266Z,20.44
2018-05-21T21:09:52.304Z,20.35
2018-05-21T21:12:23.366Z,20.32
2018-05-21T21:14:54.389Z,20.25
2018-05-21T21:17:25.404Z,20.24
2018-05-21T21:19:56.392Z,20.25
2018-05-21T21:22:27.435Z,20.22
2018-05-21T21:24:58.437Z,20.15
2018-05-21T21:27:29.440Z,20.03
2018-05-21T21:30:00.467Z,19.97
2018-05-21T21:32:31.489Z,19.93
2018-05-21T21:35:02.542Z,19.89
2018-05-21T21:37:33.639Z,19.78
2018-05-21T21:40:04.691Z,19.75
2018-05-21T21:42:35.702Z,19.72
2018-05-21T21:45:06.701Z,19.70
2018-05-21T21:47:37.743Z,19.71
2018-05-21T21:50:08.750Z,19.69
2018-05-21T21:52:39.808Z,19.62
2018-05-21T21:55:10.791Z,19.56
2018-05-21T21:57:41.816Z,19.54
2018-05-21T22:00:12.864Z,19.50
2018-05-21T22:02:43.907Z,19.47
2018-05-21T22:05:14.922Z,19.41
2018-05-21T22:07:45.956Z,19.35
2018-05-21T22:10:16.906Z,19.28
2018-05-21T22:12:47.902Z,19.29
2018-05-21T22:15:18.873Z,19.25
2018-05-21T22:17:49.906Z,19.25
2018-05-21T22:20:20.923Z,19.22
2018-05-21T22:22:51.983Z,19.18
2018-05-21T22:25:22.967Z,19.16
2018-05-21T22:27:54.031Z,19.13
2018-05-21T22:30:25.007Z,19.12
2018-05-21T22:32:56.031Z,19.13
2018-05-21T22:35:27.032Z,19.10
2018-05-21T22:37:58.063Z,19.06
2018-05-21T22:40:29.043Z,19.07
2018-05-21T22:43:00.103Z,19.04
2018-05-21T22:45:31.122Z,19.02
2018-05-21T22:48:02.192Z,19.01
2018-05-21T22:50:33.191Z,18.94
2018-05-21T22:53:04.260Z,18.92
2018-05-21T22:55:35.286Z,18.90
2018-05-21T22:58:06.272Z,18.88
2018-05-21T23:00:37.332Z,18.86
2018-05-21T23:03:08.327Z,18.83
2018-05-21T23:05:39.372Z,18.80
2018-05-21T23:08:10.339Z,18.76
2018-05-21T23:10:41.380Z,18.70
2018-05-21T23:13:12.368Z,18.69
2018-05-21T23:15:43.446Z,18.66
2018-05-21T23:18:14.414Z,18.65
2018-05-21T23:20:45.454Z,18.63
2018-05-21T23:23:16.460Z,18.62
2018-05-21T23:25:47.533Z,18.60
2018-05-21T23:28:18.522Z,18.56
2018-05-21T23:30:49.538Z,18.53
2018-05-21T23:33:20.601Z,18.49
2018-05-21T23:35:51.583Z,18.45
2018-05-21T23:38:22.561Z,18.43
2018-05-21T23:40:53.588Z,18.41
2018-05-21T23:43:24.673Z,18.39
2018-05-21T23:45:55.605Z,18.34
2018-05-21T23:48:26.652Z,18.30
2018-05-21T23:50:57.728Z,18.27
2018-05-21T23:53:28.735Z,18.25
2018-05-21T23:55:59.692Z,18.24
2018-05-21T23:58:30.725Z,18.21
